Time;durP1;ratioP1;P1;durP2;ratioP2;P2;SDS_P1;SDS_P2;PMS_P1;PMS_P2;Temp;Humidity;BMP_temperature;BMP_pressure;BME280_temperature;BME280_humidity;BME280_pressure;Samples;Min_cycle;Max_cycle;Signal;HPM_P1;HPM_P2
2022/01/12 00:00:07;;;;;;;9.52;5.60;;;1.40;65.70;;;;;;5047400;28;20104;-71
2022/01/12 00:02:34;;;;;;;10.80;5.90;;;1.30;65.60;;;;;;5051395;28;20032;-71
2022/01/12 00:04:59;;;;;;;10.23;5.90;;;1.40;65.80;;;;;;5037501;28;20044;-71
2022/01/12 00:07:25;;;;;;;9.57;6.28;;;1.30;66.00;;;;;;5047570;28;20469;-71
2022/01/12 00:09:51;;;;;;;14.98;6.75;;;1.20;66.10;;;;;;5037518;28;20139;-71
2022/01/12 00:12:16;;;;;;;9.50;5.72;;;1.30;66.20;;;;;;5048748;28;20041;-71
2022/01/12 00:14:42;;;;;;;11.68;6.45;;;1.20;66.30;;;;;;5039978;28;20039;-71
2022/01/12 00:17:08;;;;;;;13.25;6.90;;;1.20;66.20;;;;;;5046277;28;20036;-72
2022/01/12 00:19:33;;;;;;;15.38;7.63;;;1.10;66.10;;;;;;5048018;28;20020;-71
2022/01/12 00:21:59;;;;;;;13.40;6.50;;;1.10;66.00;;;;;;5050536;28;20029;-71
2022/01/12 00:24:28;;;;;;;13.68;6.57;;;1.00;65.80;;;;;;5045324;28;20037;-71
2022/01/12 00:35:13;;;;;;;8.27;4.78;;;0.90;65.70;;;;;;5038504;28;20090;-72
2022/01/12 00:37:39;;;;;;;13.77;6.68;;;0.80;65.70;;;;;;5042764;28;20034;-71
2022/01/12 00:40:05;;;;;;;13.25;6.68;;;0.80;65.60;;;;;;5040770;28;20465;-71
2022/01/12 00:42:31;;;;;;;14.68;6.88;;;0.80;65.60;;;;;;5052316;28;20436;-71
2022/01/12 00:45:00;;;;;;;14.52;6.70;;;0.70;65.70;;;;;;5042307;28;20021;-71
2022/01/12 00:47:26;;;;;;;10.10;5.18;;;0.70;65.80;;;;;;5048540;28;20025;-71
2022/01/12 00:49:52;;;;;;;9.32;5.25;;;0.80;65.90;;;;;;5038360;28;20512;-71
2022/01/12 00:52:17;;;;;;;11.07;5.55;;;0.80;66.00;;;;;;5035434;28;20037;-71
2022/01/12 00:54:43;;;;;;;9.93;5.25;;;0.70;66.10;;;;;;5035274;28;20025;-71
2022/01/12 00:57:08;;;;;;;9.27;4.47;;;0.50;66.40;;;;;;5051764;28;20087;-71
2022/01/12 00:59:34;;;;;;;7.82;4.57;;;0.50;66.60;;;;;;5041675;28;20021;-71
2022/01/12 01:02:00;;;;;;;6.97;4.32;;;0.50;66.70;;;;;;5039707;28;20501;-71
2022/01/12 01:04:26;;;;;;;6.03;4.70;;;0.40;66.80;;;;;;5042752;28;20465;-71
2022/01/12 01:06:54;;;;;;;6.30;4.25;;;0.40;66.70;;;;;;5045604;28;20024;-71
2022/01/12 01:09:20;;;;;;;7.93;4.78;;;0.40;66.70;;;;;;5050559;28;20051;-71
2022/01/12 01:11:45;;;;;;;6.15;3.95;;;0.40;66.70;;;;;;5039638;28;20469;-71
2022/01/12 01:14:20;;;;;;;7.95;4.07;;;0.50;66.60;;;;;;5043931;28;20037;-71
2022/01/12 01:17:15;;;;;;;7.25;4.15;;;0.40;66.50;;;;;;5040247;28;20025;-71
2022/01/12 01:27:50;;;;;;;4.47;3.35;;;0.20;66.80;;;;;;5045947;28;20120;-71
2022/01/12 01:30:16;;;;;;;5.80;3.60;;;0.20;66.70;;;;;;5042725;28;20124;-71
2022/01/12 01:32:43;;;;;;;5.93;4.25;;;0.20;66.70;;;;;;5043742;28;20111;-71
2022/01/12 01:35:09;;;;;;;5.90;4.13;;;0.30;66.90;;;;;;5047921;28;20040;-71
2022/01/12 01:37:35;;;;;;;6.70;4.05;;;0.10;67.10;;;;;;5042542;28;20021;-71
2022/01/12 01:40:01;;;;;;;5.85;3.92;;;0.10;67.20;;;;;;5035461;28;20029;-71
2022/01/12 01:42:41;;;;;;;6.13;3.95;;;0.10;67.20;;;;;;5043412;28;20021;-71
2022/01/12 01:53:22;;;;;;;9.25;4.95;;;0.10;66.70;;;;;;5049574;28;20086;-71
2022/01/12 01:55:50;;;;;;;12.20;5.72;;;0.00;66.50;;;;;;5046425;28;20072;-71
2022/01/12 01:58:16;;;;;;;9.23;5.57;;;0.00;66.80;;;;;;5046205;28;20029;-71
2022/01/12 02:00:42;;;;;;;12.20;5.93;;;-0.10;67.00;;;;;;5045448;28;20029;-71
2022/01/12 02:03:08;;;;;;;10.52;6.20;;;-0.10;67.20;;;;;;5039141;28;20036;-71
2022/01/12 02:05:33;;;;;;;10.75;5.70;;;-0.10;67.20;;;;;;5040877;28;20025;-71
2022/01/12 02:08:00;;;;;;;9.30;5.43;;;-0.10;67.30;;;;;;5038442;28;20036;-71
2022/01/12 02:10:26;;;;;;;9.85;5.65;;;-0.10;67.30;;;;;;5037470;28;20040;-71
2022/01/12 02:12:52;;;;;;;8.10;5.03;;;-0.10;67.20;;;;;;5035560;28;20041;-71
2022/01/12 02:15:22;;;;;;;8.45;5.43;;;-0.10;67.10;;;;;;5049290;28;20036;-71
2022/01/12 02:40:33;;;;;;;8.20;6.07;;;-0.20;67.60;;;;;;5049478;28;20416;-71
2022/01/12 02:43:18;;;;;;;10.60;6.30;;;0.00;68.40;;;;;;5048164;28;20029;-71
2022/01/12 02:53:48;;;;;;;8.45;5.93;;;-0.20;67.40;;;;;;5040243;28;20052;-71
2022/01/12 02:56:20;;;;;;;10.90;5.97;;;-0.20;67.40;;;;;;5049387;28;20021;-71
2022/01/12 02:58:47;;;;;;;11.25;6.50;;;-0.20;67.50;;;;;;5037622;28;20036;-71
2022/01/12 03:04:02;;;;;;;10.18;6.15;;;-0.20;67.70;;;;;;5048007;28;20079;-71
2022/01/12 03:06:31;;;;;;;10.40;6.30;;;-0.20;67.70;;;;;;5052203;28;20057;-71
2022/01/12 03:08:59;;;;;;;9.95;6.75;;;-0.10;67.90;;;;;;5052699;28;20401;-71
2022/01/12 03:11:27;;;;;;;10.70;6.45;;;-0.10;68.10;;;;;;5047461;28;20040;-71
2022/01/12 03:13:53;;;;;;;9.95;6.32;;;-0.10;68.10;;;;;;5055032;28;20041;-71
2022/01/12 03:16:21;;;;;;;13.52;6.57;;;-0.10;68.00;;;;;;5040160;28;20027;-71
2022/01/12 03:18:49;;;;;;;9.48;6.30;;;0.20;68.40;;;;;;5036719;28;20033;-70
2022/01/12 03:21:19;;;;;;;10.80;6.70;;;0.10;68.50;;;;;;5074013;28;20037;-71
2022/01/12 03:23:45;;;;;;;12.77;6.50;;;0.00;69.10;;;;;;5049874;28;20025;-70
2022/01/12 03:26:11;;;;;;;11.05;6.32;;;0.00;69.00;;;;;;5041830;28;20135;-71
2022/01/12 03:28:39;;;;;;;11.32;6.40;;;0.10;68.60;;;;;;5040604;28;20049;-71
2022/01/12 03:36:27;;;;;;;12.05;6.47;;;0.40;69.00;;;;;;5042218;28;20036;-71
2022/01/12 03:39:01;;;;;;;9.82;6.22;;;0.30;68.90;;;;;;5039620;28;20477;-70
2022/01/12 03:41:29;;;;;;;11.63;7.15;;;0.30;69.10;;;;;;5053921;28;20024;-71
2022/01/12 03:43:58;;;;;;;11.32;6.68;;;0.30;68.90;;;;;;5048904;28;20024;-71
2022/01/12 03:46:27;;;;;;;13.93;7.22;;;0.40;69.00;;;;;;5035076;28;20029;-71
2022/01/12 03:48:53;;;;;;;9.60;6.32;;;0.40;69.00;;;;;;5035026;28;20030;-71
2022/01/12 03:51:19;;;;;;;15.90;7.35;;;0.50;69.00;;;;;;5034920;28;20382;-71
2022/01/12 03:53:44;;;;;;;15.23;7.45;;;0.60;69.10;;;;;;5054266;28;20036;-71
2022/01/12 03:56:10;;;;;;;9.32;6.45;;;0.80;69.30;;;;;;5059899;28;20018;-71
2022/01/12 03:58:36;;;;;;;11.15;6.60;;;0.60;69.20;;;;;;5055014;28;20061;-71
2022/01/12 04:01:02;;;;;;;14.25;7.82;;;0.60;69.10;;;;;;5055226;28;20317;-71
2022/01/12 04:03:29;;;;;;;12.98;7.57;;;0.70;69.10;;;;;;5054580;28;20503;-71
2022/01/12 04:08:23;;;;;;;10.45;7.05;;;0.80;69.30;;;;;;5054825;28;20083;-71
2022/01/12 04:10:50;;;;;;;11.93;6.65;;;0.80;69.30;;;;;;5053496;28;20104;-71
2022/01/12 04:13:16;;;;;;;11.30;6.57;;;0.80;69.20;;;;;;5039548;28;20029;-71
2022/01/12 04:15:55;;;;;;;12.25;6.85;;;0.80;69.10;;;;;;5033295;28;20099;-71
2022/01/12 04:18:21;;;;;;;10.80;6.78;;;1.00;69.10;;;;;;5033324;28;20029;-71
2022/01/12 04:20:50;;;;;;;11.65;7.03;;;1.00;69.00;;;;;;5037222;28;20056;-71
2022/01/12 04:23:18;;;;;;;12.18;7.00;;;1.10;69.00;;;;;;5054019;28;20040;-71
2022/01/12 04:25:49;;;;;;;15.52;8.05;;;1.20;69.10;;;;;;5054423;28;20077;-71
2022/01/12 04:28:16;;;;;;;12.43;7.57;;;1.10;69.20;;;;;;5040308;28;20382;-70
2022/01/12 04:30:42;;;;;;;14.85;8.73;;;1.20;69.20;;;;;;5034154;28;20087;-71
2022/01/12 04:33:08;;;;;;;14.43;8.13;;;1.30;69.30;;;;;;5036456;28;20029;-70
2022/01/12 04:35:37;;;;;;;16.33;8.35;;;1.10;69.20;;;;;;5053094;28;20032;-70
2022/01/12 04:38:04;;;;;;;13.80;8.32;;;1.20;69.40;;;;;;5054041;28;20113;-70
2022/01/12 04:40:30;;;;;;;13.88;8.48;;;1.20;69.40;;;;;;5054151;28;20499;-71
2022/01/12 04:42:56;;;;;;;13.43;8.25;;;1.50;69.50;;;;;;5047542;28;20083;-71
2022/01/12 04:50:24;;;;;;;13.85;8.38;;;1.60;69.30;;;;;;5053019;28;20032;-71
2022/01/12 04:52:50;;;;;;;12.85;8.02;;;1.40;69.20;;;;;;5053730;28;20048;-71
2022/01/12 04:55:16;;;;;;;14.68;8.48;;;1.40;69.10;;;;;;5053611;28;20025;-71
2022/01/12 04:57:42;;;;;;;15.98;8.15;;;1.50;69.10;;;;;;5053745;28;20055;-71
2022/01/12 05:00:15;;;;;;;12.00;8.10;;;1.60;69.10;;;;;;5054036;28;20021;-71
2022/01/12 05:08:48;;;;;;;11.82;7.60;;;1.70;69.00;;;;;;5034049;28;20119;-71
2022/01/12 05:13:56;;;;;;;11.02;7.30;;;1.80;68.90;;;;;;5046055;28;20200;-71
2022/01/12 05:16:22;;;;;;;11.10;7.55;;;1.70;68.80;;;;;;5053520;28;20591;-71
2022/01/12 05:18:50;;;;;;;11.05;7.28;;;1.70;68.90;;;;;;5053023;28;20076;-71
2022/01/12 05:21:17;;;;;;;10.07;7.30;;;1.70;68.70;;;;;;5037053;28;20431;-71
2022/01/12 05:23:43;;;;;;;11.15;7.68;;;1.90;68.80;;;;;;5033379;28;20468;-71
2022/01/12 05:26:09;;;;;;;22.58;11.60;;;1.70;68.50;;;;;;5032015;28;20079;-71
2022/01/12 05:28:38;;;;;;;16.65;8.70;;;1.80;68.60;;;;;;5032927;28;20120;-70
2022/01/12 05:31:04;;;;;;;11.63;7.95;;;1.70;68.50;;;;;;5033190;28;20025;-70
2022/01/12 05:33:30;;;;;;;11.43;7.75;;;1.70;68.50;;;;;;5033178;28;20025;-71
2022/01/12 05:35:57;;;;;;;12.85;7.40;;;1.70;68.40;;;;;;5042463;28;20048;-71
2022/01/12 05:38:23;;;;;;;11.60;7.82;;;1.90;68.50;;;;;;5052574;28;20025;-70
2022/01/12 05:40:52;;;;;;;8.98;6.72;;;1.90;68.60;;;;;;5053016;28;20029;-71
2022/01/12 05:43:24;;;;;;;11.20;7.10;;;1.70;68.50;;;;;;5052910;28;20500;-71
2022/01/12 05:45:52;;;;;;;10.30;6.32;;;1.70;68.50;;;;;;5051524;28;20021;-71
2022/01/12 05:50:46;;;;;;;9.40;6.57;;;1.90;68.50;;;;;;5052879;28;20442;-71
2022/01/12 05:53:12;;;;;;;11.63;7.53;;;1.80;68.50;;;;;;5048358;28;20059;-71
2022/01/12 05:55:38;;;;;;;10.30;6.82;;;1.80;68.40;;;;;;5034195;28;20545;-71
2022/01/12 05:58:04;;;;;;;9.70;6.82;;;1.80;68.40;;;;;;5032887;28;20041;-71
2022/01/12 06:00:30;;;;;;;11.68;6.88;;;1.80;68.40;;;;;;5032839;28;20429;-71
2022/01/12 06:02:55;;;;;;;10.10;6.72;;;1.80;68.30;;;;;;5040343;28;20037;-71
2022/01/12 06:05:22;;;;;;;10.45;7.00;;;1.80;68.20;;;;;;5035910;28;20026;-70
2022/01/12 06:07:49;;;;;;;11.00;7.47;;;1.80;68.20;;;;;;5032698;28;20520;-70
2022/01/12 06:10:16;;;;;;;15.25;9.50;;;1.80;68.20;;;;;;5031350;28;20033;-70
2022/01/12 06:12:42;;;;;;;12.30;7.63;;;1.80;68.20;;;;;;5031025;28;20041;-71
2022/01/12 06:15:08;;;;;;;16.88;10.07;;;1.80;68.30;;;;;;5032577;28;20100;-71
2022/01/12 06:17:34;;;;;;;21.35;14.25;;;1.80;68.20;;;;;;5039376;28;20021;-71
2022/01/12 06:20:02;;;;;;;18.00;11.55;;;1.80;68.40;;;;;;5052390;28;20535;-71
2022/01/12 06:22:27;;;;;;;46.08;25.63;;;1.90;68.50;;;;;;5052613;28;20031;-71
2022/01/12 06:24:55;;;;;;;21.95;12.88;;;1.90;68.50;;;;;;5052333;28;20112;-71
2022/01/12 06:27:22;;;;;;;15.23;7.90;;;1.90;68.50;;;;;;5051015;28;20029;-70
2022/01/12 06:30:03;;;;;;;13.25;7.60;;;1.90;68.40;;;;;;5031504;28;20057;-71
2022/01/12 06:32:30;;;;;;;16.70;10.90;;;1.90;68.30;;;;;;5044724;28;20037;-71
2022/01/12 06:34:56;;;;;;;13.68;9.45;;;2.00;68.40;;;;;;5051203;28;20056;-71
2022/01/12 06:37:22;;;;;;;12.07;7.72;;;2.00;68.30;;;;;;5052195;28;20040;-70
2022/01/12 06:39:49;;;;;;;10.50;7.28;;;2.00;68.30;;;;;;5049076;28;20371;-71
2022/01/12 06:42:14;;;;;;;11.32;7.13;;;2.00;68.20;;;;;;5032295;28;20429;-71
2022/01/12 06:44:40;;;;;;;8.88;5.80;;;2.00;68.00;;;;;;5032174;28;20032;-71
2022/01/12 06:47:06;;;;;;;9.85;6.20;;;2.00;67.90;;;;;;5031017;28;20466;-71
2022/01/12 06:49:32;;;;;;;10.57;6.35;;;2.00;67.60;;;;;;5032567;28;20440;-70
2022/01/12 06:52:00;;;;;;;10.30;6.70;;;2.00;67.70;;;;;;5044746;28;20032;-70
2022/01/12 06:54:26;;;;;;;10.25;6.50;;;2.00;67.80;;;;;;5051977;28;20025;-71
2022/01/12 06:56:52;;;;;;;8.68;6.28;;;2.00;67.80;;;;;;5052078;28;20104;-71
2022/01/12 06:59:17;;;;;;;9.20;6.50;;;2.00;67.70;;;;;;5052208;28;20103;-71
2022/01/12 07:01:44;;;;;;;10.35;7.10;;;2.00;67.70;;;;;;5050647;28;20063;-70
2022/01/12 07:04:10;;;;;;;11.57;6.43;;;2.10;67.70;;;;;;5051801;28;20025;-71
2022/01/12 07:06:36;;;;;;;10.82;6.72;;;2.10;67.70;;;;;;5047358;28;20072;-70
2022/01/12 07:09:03;;;;;;;9.52;6.43;;;2.10;67.60;;;;;;5031053;28;20029;-70
2022/01/12 07:11:29;;;;;;;9.07;6.43;;;2.40;67.80;;;;;;5032271;28;20030;-70
2022/01/12 07:13:55;;;;;;;11.23;7.00;;;2.30;67.80;;;;;;5032963;28;20059;-70
2022/01/12 07:16:20;;;;;;;11.45;7.38;;;2.30;67.70;;;;;;5035599;28;20025;-71
2022/01/12 07:18:46;;;;;;;9.95;6.93;;;2.10;67.70;;;;;;5035937;28;20044;-70
2022/01/12 07:21:12;;;;;;;10.18;6.65;;;2.10;67.70;;;;;;5047038;28;20031;-71
2022/01/12 07:23:37;;;;;;;11.60;7.03;;;2.10;67.00;;;;;;5055389;28;20025;-71
2022/01/12 07:26:03;;;;;;;10.32;6.82;;;2.00;67.40;;;;;;5055637;28;20416;-70
2022/01/12 07:28:29;;;;;;;11.77;7.10;;;2.00;67.50;;;;;;5055067;28;20045;-70
2022/01/12 07:30:55;;;;;;;10.27;6.55;;;2.00;67.60;;;;;;5037094;28;20105;-71
2022/01/12 07:33:22;;;;;;;10.45;6.72;;;2.10;67.60;;;;;;5035354;28;20041;-71
2022/01/12 07:35:48;;;;;;;11.00;6.63;;;2.10;67.70;;;;;;5033908;28;20120;-71
2022/01/12 07:38:14;;;;;;;11.27;7.07;;;2.10;67.70;;;;;;5034153;28;20068;-71
2022/01/12 07:40:39;;;;;;;10.90;7.57;;;2.10;67.70;;;;;;5033999;28;20033;-71
2022/01/12 07:43:06;;;;;;;13.90;7.97;;;2.10;67.70;;;;;;5035133;28;20076;-71
2022/01/12 07:45:33;;;;;;;10.23;6.80;;;2.30;67.80;;;;;;5035288;28;20052;-71
2022/01/12 07:47:58;;;;;;;11.23;7.05;;;2.10;67.40;;;;;;5035229;28;20057;-71
2022/01/12 07:50:25;;;;;;;9.88;6.65;;;2.30;67.40;;;;;;5055021;28;20063;-71
2022/01/12 07:52:53;;;;;;;11.73;7.05;;;2.10;67.30;;;;;;5054674;28;20107;-71
2022/01/12 07:55:20;;;;;;;12.55;6.68;;;2.10;67.20;;;;;;5053623;28;20669;-70
2022/01/12 07:57:46;;;;;;;12.68;7.45;;;2.10;67.10;;;;;;5055015;28;20112;-71
2022/01/12 08:00:13;;;;;;;11.65;7.55;;;2.20;67.00;;;;;;5054835;28;20052;-71
2022/01/12 08:02:38;;;;;;;14.57;7.65;;;2.10;67.10;;;;;;5054692;28;20488;-71
2022/01/12 08:05:05;;;;;;;26.73;14.02;;;2.30;67.30;;;;;;5053130;28;20104;-71
2022/01/12 08:07:35;;;;;;;40.97;19.88;;;2.10;67.30;;;;;;5054565;28;20107;-71
2022/01/12 08:10:02;;;;;;;14.45;8.98;;;2.40;67.50;;;;;;5054512;28;20025;-71
2022/01/12 08:12:28;;;;;;;15.13;8.93;;;2.20;67.30;;;;;;5054546;28;20128;-71
2022/01/12 08:14:54;;;;;;;13.98;7.18;;;2.20;67.00;;;;;;5053278;28;20415;-71
2022/01/12 08:17:20;;;;;;;10.27;6.80;;;2.20;66.90;;;;;;5053053;28;20032;-71
2022/01/12 08:19:45;;;;;;;12.02;7.40;;;2.50;67.10;;;;;;5053138;28;20030;-71
2022/01/12 08:22:11;;;;;;;12.10;7.28;;;2.40;67.20;;;;;;5054480;28;20491;-71
2022/01/12 08:24:37;;;;;;;13.07;6.97;;;2.40;67.00;;;;;;5053200;28;20500;-71
2022/01/12 08:27:02;;;;;;;11.90;7.07;;;2.20;66.90;;;;;;5048005;28;20014;-71
2022/01/12 08:29:29;;;;;;;11.07;7.28;;;2.20;66.80;;;;;;5032840;28;20179;-71
2022/01/12 08:31:55;;;;;;;11.10;6.93;;;2.20;66.80;;;;;;5036170;28;20025;-71
2022/01/12 08:34:21;;;;;;;13.45;6.97;;;2.30;66.90;;;;;;5052828;28;20025;-71
2022/01/12 08:36:47;;;;;;;14.40;7.43;;;2.20;67.00;;;;;;5054262;28;20044;-71
2022/01/12 08:39:13;;;;;;;11.60;7.93;;;2.20;67.00;;;;;;5054195;28;20469;-71
2022/01/12 08:41:39;;;;;;;12.50;7.60;;;2.20;67.00;;;;;;5052559;28;20017;-71
2022/01/12 08:44:06;;;;;;;13.10;8.32;;;2.20;67.00;;;;;;5054230;28;20021;-71
2022/01/12 08:46:32;;;;;;;12.32;8.00;;;2.30;67.20;;;;;;5052215;28;20033;-71
2022/01/12 08:48:57;;;;;;;13.98;9.05;;;2.30;67.10;;;;;;5053767;28;20537;-71
2022/01/12 08:51:23;;;;;;;12.85;8.93;;;2.30;67.10;;;;;;5052492;28;20035;-71
2022/01/12 08:53:49;;;;;;;16.00;9.57;;;2.30;67.10;;;;;;5052060;28;20037;-71
2022/01/12 08:56:15;;;;;;;17.42;10.10;;;2.30;67.20;;;;;;5038789;28;20023;-71
2022/01/12 08:58:41;;;;;;;18.80;10.63;;;2.40;67.20;;;;;;5053835;28;20052;-71
2022/01/12 09:01:09;;;;;;;14.70;9.70;;;2.40;67.30;;;;;;5047741;28;20132;-71
2022/01/12 09:03:36;;;;;;;19.55;11.23;;;2.40;67.30;;;;;;5037633;28;20055;-71
2022/01/12 09:06:03;;;;;;;30.08;17.70;;;2.50;67.30;;;;;;5039527;28;20100;-71
2022/01/12 09:08:29;;;;;;;18.52;10.80;;;2.50;67.30;;;;;;5033672;28;20060;-71
2022/01/12 09:10:55;;;;;;;17.40;10.43;;;2.50;67.30;;;;;;5033658;28;20045;-71
2022/01/12 09:13:21;;;;;;;19.65;10.52;;;2.60;67.10;;;;;;5033424;28;20076;-71
2022/01/12 09:15:46;;;;;;;14.02;9.30;;;2.70;66.90;;;;;;5033531;28;20021;-71
2022/01/12 09:18:12;;;;;;;17.35;10.15;;;2.70;66.70;;;;;;5045626;28;20048;-71
2022/01/12 09:20:38;;;;;;;16.25;10.00;;;2.60;66.60;;;;;;5035092;28;20029;-71
2022/01/12 09:23:05;;;;;;;16.58;10.68;;;2.70;66.70;;;;;;5053377;28;20029;-71
2022/01/12 09:25:35;;;;;;;14.77;9.60;;;2.70;66.70;;;;;;5051884;28;20066;-71
2022/01/12 09:28:02;;;;;;;18.83;10.68;;;2.70;66.60;;;;;;5042477;28;20113;-71
2022/01/12 09:30:29;;;;;;;17.67;10.38;;;2.80;66.80;;;;;;5033415;28;20018;-71
2022/01/12 09:32:55;;;;;;;18.15;10.60;;;2.80;66.80;;;;;;5047751;28;20033;-71
2022/01/12 09:35:21;;;;;;;18.52;10.90;;;2.80;66.80;;;;;;5051581;28;20036;-71
2022/01/12 09:37:47;;;;;;;18.63;10.65;;;2.90;66.70;;;;;;5052879;28;20028;-71
2022/01/12 09:40:13;;;;;;;16.83;11.20;;;2.90;66.50;;;;;;5047859;28;20048;-71
2022/01/12 09:42:41;;;;;;;15.35;9.98;;;2.90;66.30;;;;;;5032962;28;20389;-71
2022/01/12 09:45:07;;;;;;;18.98;10.02;;;2.90;66.30;;;;;;5033012;28;20421;-71
2022/01/12 09:47:34;;;;;;;17.48;9.85;;;2.90;66.30;;;;;;5038487;28;20474;-71
2022/01/12 09:50:01;;;;;;;16.27;10.43;;;3.00;66.40;;;;;;5053011;28;20017;-71
2022/01/12 09:52:27;;;;;;;16.50;10.60;;;3.10;66.50;;;;;;5052301;28;20062;-71
2022/01/12 09:54:52;;;;;;;17.13;10.20;;;3.00;66.40;;;;;;5052707;28;20029;-71
2022/01/12 09:57:18;;;;;;;14.45;9.40;;;3.10;66.40;;;;;;5052744;28;20025;-71
2022/01/12 09:59:44;;;;;;;16.70;10.43;;;3.00;66.20;;;;;;5051763;28;20025;-71
2022/01/12 10:02:18;;;;;;;17.98;10.48;;;3.10;66.10;;;;;;5051415;28;20535;-71
2022/01/12 10:04:43;;;;;;;16.05;8.23;;;3.30;66.60;;;;;;5049699;28;20428;-72
2022/01/12 10:07:11;;;;;;;13.27;9.05;;;3.10;65.80;;;;;;5032676;28;20030;-71
2022/01/12 10:09:39;;;;;;;15.48;9.57;;;3.30;66.00;;;;;;5032709;28;20017;-71
2022/01/12 10:12:14;;;;;;;15.05;9.07;;;3.10;65.80;;;;;;5032786;28;20413;-71
2022/01/12 10:14:50;;;;;;;;;;;3.10;65.60;;;;;;5033051;28;20497;-71
2022/01/12 10:17:17;;;;;;;17.08;10.43;;;3.20;65.30;;;;;;5036952;28;19913;-71
2022/01/12 10:19:43;;;;;;;27.52;10.98;;;3.20;65.70;;;;;;5052610;28;20075;-71
2022/01/12 10:22:14;;;;;;;17.80;10.05;;;3.20;66.30;;;;;;5052671;28;20033;-71
2022/01/12 10:24:42;;;;;;;15.60;9.95;;;3.30;65.40;;;;;;5051308;28;20119;-71
2022/01/12 10:27:38;;;;;;;19.02;11.70;;;3.20;65.10;;;;;;5038114;28;20028;-71
2022/01/12 10:30:05;;;;;;;17.50;11.15;;;3.10;64.70;;;;;;5031639;28;20103;-72
2022/01/12 10:32:31;;;;;;;16.83;9.93;;;3.10;65.20;;;;;;5032464;28;20025;-71
2022/01/12 10:34:59;;;;;;;17.83;9.90;;;3.10;65.40;;;;;;5050605;28;20032;-71
2022/01/12 10:37:27;;;;;;;15.30;9.68;;;3.20;65.30;;;;;;5053612;28;20423;-71
2022/01/12 10:39:55;;;;;;;15.85;10.10;;;3.10;64.80;;;;;;5053247;28;20033;-71
2022/01/12 10:42:26;;;;;;;16.80;10.55;;;3.40;65.10;;;;;;5052735;28;20428;-71
2022/01/12 10:45:02;;;;;;;17.73;10.95;;;3.10;64.90;;;;;;5052265;28;20107;-71
2022/01/12 10:47:31;;;;;;;20.15;10.10;;;3.20;65.10;;;;;;5052285;28;20424;-71
2022/01/12 10:50:00;;;;;;;16.95;11.30;;;3.20;65.40;;;;;;5055146;28;20044;-71
2022/01/12 10:52:35;;;;;;;22.40;11.75;;;3.40;65.40;;;;;;5055953;28;20440;-71
2022/01/12 10:55:12;;;;;;;18.10;10.98;;;3.30;65.20;;;;;;5056080;28;20032;-72
2022/01/12 10:57:44;;;;;;;19.10;11.50;;;3.30;65.10;;;;;;5056213;28;20032;-72
2022/01/12 11:00:18;;;;;;;17.08;10.50;;;3.40;65.30;;;;;;5050346;28;20112;-72
2022/01/12 11:02:50;;;;;;;;;;;3.40;65.20;;;;;;5036476;28;20021;-72
2022/01/12 11:05:16;;;;;;;16.40;9.77;;;3.50;64.80;;;;;;5045833;28;19905;-72
2022/01/12 11:07:42;;;;;;;16.83;10.10;;;3.60;65.00;;;;;;5035949;28;20026;-72
2022/01/12 11:10:09;;;;;;;17.73;11.18;;;3.60;64.80;;;;;;5035991;28;20037;-72
2022/01/12 11:12:36;;;;;;;27.00;17.52;;;3.60;64.80;;;;;;5035856;28;20059;-72
2022/01/12 11:15:11;;;;;;;19.75;13.10;;;3.60;64.80;;;;;;5035996;28;20040;-72
2022/01/12 11:17:39;;;;;;;18.95;11.88;;;3.70;64.80;;;;;;5035660;28;20033;-72
2022/01/12 11:20:27;;;;;;;16.70;11.18;;;3.80;64.90;;;;;;5035753;28;20490;-72
2022/01/12 11:23:14;;;;;;;18.88;12.05;;;3.70;64.70;;;;;;5041036;28;20471;-73
2022/01/12 11:25:44;;;;;;;22.33;14.63;;;3.80;64.20;;;;;;5055480;28;20029;-72
2022/01/12 11:28:15;;;;;;;19.85;12.32;;;3.80;64.60;;;;;;5050627;28;20022;-72
2022/01/12 11:30:43;;;;;;;19.15;13.30;;;3.80;64.60;;;;;;5034330;28;20480;-72
2022/01/12 11:33:11;;;;;;;26.15;17.92;;;3.90;65.10;;;;;;5035346;28;20167;-73
2022/01/12 11:35:41;;;;;;;20.95;14.25;;;3.90;64.80;;;;;;5035417;28;20022;-72
2022/01/12 11:38:18;;;;;;;20.08;12.63;;;4.00;64.60;;;;;;5034256;28;20087;-72
2022/01/12 11:40:44;;;;;;;21.10;13.05;;;4.10;64.70;;;;;;5042150;28;20021;-73
2022/01/12 11:43:19;;;;;;;20.65;12.77;;;4.10;64.50;;;;;;5053894;28;20133;-73
2022/01/12 11:45:45;;;;;;;28.05;17.02;;;4.20;64.00;;;;;;5055311;28;20076;-73
2022/01/12 11:48:11;;;;;;;19.95;12.82;;;4.50;64.40;;;;;;5055111;28;20063;-73
2022/01/12 11:50:37;;;;;;;21.70;13.05;;;4.30;63.60;;;;;;5054948;28;20053;-72
2022/01/12 11:53:03;;;;;;;23.75;13.77;;;4.30;63.40;;;;;;5043797;28;20116;-73
2022/01/12 11:55:40;;;;;;;20.95;12.88;;;4.20;62.90;;;;;;5053290;28;20466;-72
2022/01/12 11:58:16;;;;;;;81.07;33.50;;;4.20;62.90;;;;;;5054673;28;20175;-73
2022/01/12 12:00:42;;;;;;;28.98;16.25;;;4.20;63.00;;;;;;5053714;28;20029;-73
2022/01/12 12:03:19;;;;;;;25.63;13.00;;;4.20;63.50;;;;;;5053459;28;20021;-73
2022/01/12 12:05:45;;;;;;;24.30;13.48;;;4.20;64.00;;;;;;5034603;28;20025;-73
2022/01/12 12:08:22;;;;;;;21.17;12.43;;;4.20;63.60;;;;;;5034640;28;20466;-73
2022/01/12 12:10:51;;;;;;;18.80;11.15;;;4.30;63.90;;;;;;5034927;28;20017;-73
2022/01/12 12:13:20;;;;;;;14.73;10.80;;;4.40;63.80;;;;;;5034663;28;20109;-73
2022/01/12 12:15:47;;;;;;;18.70;10.20;;;4.60;63.70;;;;;;5034704;28;20104;-73
2022/01/12 12:18:16;;;;;;;16.35;10.60;;;4.80;63.70;;;;;;5045392;28;20033;-74
2022/01/12 12:20:42;;;;;;;16.42;11.02;;;4.70;63.10;;;;;;5053281;28;20104;-73
2022/01/12 12:23:07;;;;;;;15.50;10.20;;;4.80;63.10;;;;;;5054374;28;20108;-73
2022/01/12 12:25:34;;;;;;;17.73;9.85;;;5.00;63.20;;;;;;5045007;28;20021;-73
2022/01/12 12:28:13;;;;;;;15.57;9.63;;;4.90;62.90;;;;;;5033203;28;20029;-72
2022/01/12 12:30:39;;;;;;;13.40;9.05;;;5.00;62.20;;;;;;5033121;28;20096;-73
2022/01/12 12:33:11;;;;;;;16.13;9.88;;;5.00;62.60;;;;;;5053114;28;20041;-73
2022/01/12 12:35:39;;;;;;;13.00;8.68;;;5.10;62.00;;;;;;5054406;28;20373;-73
2022/01/12 12:38:11;;;;;;;15.57;9.50;;;5.20;62.10;;;;;;5054177;28;20075;-73
2022/01/12 12:40:38;;;;;;;16.35;9.18;;;5.20;62.10;;;;;;5054225;28;20025;-73
2022/01/12 12:43:35;;;;;;;14.15;9.15;;;5.30;61.80;;;;;;5036266;28;20049;-73
2022/01/12 12:46:05;;;;;;;15.60;9.15;;;5.30;61.10;;;;;;5037527;28;20484;-74
2022/01/12 12:48:32;;;;;;;15.77;9.73;;;5.40;62.10;;;;;;5036050;28;20029;-74
2022/01/12 12:51:03;;;;;;;15.30;9.98;;;5.40;62.10;;;;;;5032756;28;20473;-74
2022/01/12 12:53:30;;;;;;;96.25;48.88;;;5.50;62.00;;;;;;5036379;28;20501;-74
2022/01/12 12:55:56;;;;;;;27.20;17.15;;;5.60;62.10;;;;;;5037967;28;20381;-74
2022/01/12 12:58:25;;;;;;;24.98;13.43;;;5.70;62.10;;;;;;5034205;28;20025;-74
2022/01/12 13:00:51;;;;;;;17.33;11.23;;;5.80;62.00;;;;;;5041274;28;20074;-74
2022/01/12 13:03:17;;;;;;;16.92;11.40;;;5.80;61.70;;;;;;5049392;28;20029;-74
2022/01/12 13:05:43;;;;;;;17.33;10.35;;;5.80;61.40;;;;;;5049796;28;20389;-74
2022/01/12 13:08:10;;;;;;;16.35;10.52;;;5.80;60.90;;;;;;5035319;28;20025;-74
2022/01/12 13:10:36;;;;;;;18.42;11.75;;;5.80;60.90;;;;;;5032349;28;20056;-73
2022/01/12 13:13:07;;;;;;;16.83;10.52;;;5.80;60.50;;;;;;5035941;28;20037;-74
2022/01/12 13:15:41;;;;;;;15.70;11.43;;;5.80;60.40;;;;;;5036239;28;20017;-74
2022/01/12 13:18:14;;;;;;;18.95;10.77;;;5.80;60.20;;;;;;5046428;28;20072;-72
2022/01/12 13:21:10;;;;;;;15.82;10.48;;;5.80;60.80;;;;;;5049233;28;20029;-72
2022/01/12 13:23:51;;;;;;;15.30;9.65;;;5.80;60.20;;;;;;5034839;28;20528;-72
2022/01/12 13:26:24;;;;;;;15.25;9.25;;;5.80;59.90;;;;;;5047016;28;20025;-72
2022/01/12 13:28:50;;;;;;;16.48;10.27;;;5.80;60.30;;;;;;5033766;28;20099;-71
2022/01/12 13:31:18;;;;;;;17.63;10.70;;;5.70;60.00;;;;;;5047434;28;20100;-71
2022/01/12 13:33:48;;;;;;;17.77;10.35;;;5.70;60.00;;;;;;5042136;28;20033;-71
2022/01/12 13:36:23;;;;;;;18.65;10.85;;;5.60;59.90;;;;;;5033645;28;20025;-72
2022/01/12 13:38:58;;;;;;;15.20;10.07;;;5.60;59.70;;;;;;5032976;28;20034;-72
2022/01/12 13:41:36;;;;;;;17.60;10.35;;;5.60;59.90;;;;;;5040340;28;20028;-72
2022/01/12 13:44:16;;;;;;;16.40;10.32;;;5.50;59.70;;;;;;5051402;28;20493;-72
2022/01/12 13:46:44;;;;;;;19.33;11.23;;;5.50;60.00;;;;;;5036919;28;20039;-72
2022/01/12 13:51:51;;;;;;;16.38;10.82;;;5.40;59.60;;;;;;5046743;28;20500;-71
2022/01/12 13:54:16;;;;;;;17.27;11.15;;;5.40;59.70;;;;;;5052632;28;20047;-72
2022/01/12 13:56:49;;;;;;;15.57;9.95;;;5.30;59.80;;;;;;5052728;28;20100;-71
2022/01/12 13:59:16;;;;;;;18.95;10.85;;;5.20;59.80;;;;;;5047970;28;20033;-72
2022/01/12 14:01:43;;;;;;;19.83;11.88;;;5.10;59.90;;;;;;5046758;28;20155;-71
2022/01/12 14:04:18;;;;;;;20.00;12.32;;;5.00;59.70;;;;;;5041563;28;20164;-71
2022/01/12 14:06:51;;;;;;;18.52;11.48;;;4.90;60.10;;;;;;5039521;28;20033;-71
2022/01/12 14:09:31;;;;;;;17.80;11.67;;;4.80;60.30;;;;;;5037502;28;20056;-71
2022/01/12 14:12:17;;;;;;;20.08;11.65;;;4.70;60.30;;;;;;5046774;28;20025;-71
2022/01/12 14:14:54;;;;;;;23.90;13.10;;;4.60;60.40;;;;;;5046489;28;20041;-71